| Pilot: | GLD1790 Rodrigo T. | Aircraft: | Cessna | Distance: | 64NM |
| From: | SBMT | To: | SDBN | Duration: | 0.97 |
| Validation: | Valid | Tipo: | Charter | Tail Number: | PT-GLD |
| ZFW: | 1251 | Block Fuel/Init FOB | 23flight_details.php/14 | Flight Fuel | 23 |
| Passengers: | 0 | Cargo: | 0 | Alternate: | SDCO |
| Departure Time: | 1426 | Cruise Speed: | 90 | Flight Level: | VRF |
| Flight Type: | VFR | Aircraft Type: | C152 | Weight Unit: | Kg |
| Date: | 17/04/2026 | Comments: | GOLD ACARS | Network: | IVAO |
| Crash: | No | Validator Comments: | Rating | 108.108 |
| ROUTE | REA 2351S04721W DCT |
| REMARKS | OPR/GOLD VIRTUAL AIRLINES PER/A FROM SBMT RMK/PIC GLD1790 RMK/ALT MAX REA NOVEMBER OSCAR EM TREINAMENTO |
| Crash | OK | Beacon Lights off with engine on | OK | Speed above 250KIAS below 10.000ft | OK |
| Landing Lights OFF below 10.000ft | Fault | Landing Lights ON above 10.000ft | OK | Stall | OK |
| Overspeed | OK | Pause | OK | Refuel | OK |
| Slew | OK | Taxi Lights OFF during taxi | Fault | Land Lights OFF during take off | OK |
| Landing Lights OFF during landing | OK | Landed in not planned airfield | OK | Taxi speed above 25 kt | OK |
| Incorrect QNH during take off | OK | Incorrect QNH during landing | OK |
| Wind: | 306º/5 kt | Heading: | 169 |
| VS: | -6 ft/min | IAS: | 50 kt |
| Gforce: | 0.984 G | Bank: | 2.2 |
| Pitch | 1.21 | Flaps | 66 |
| Nav Lights | ON | Landing Lights | ON |
| Beacon Lights | ON | Strobe Lights | ON |
| DATE | EVENT | IAS | ALTITUDE |
|---|---|---|---|
| 2026-04-17 14:26:31 | GOLD ACARS VERSION 3.3.6.9 | 0 | 0 |
| 2026-04-17 14:26:32 | BOARDING | 0 | 2401 |
| 2026-04-17 14:28:36 | BCN LIGHTS ON | 0 | 2401 |
| 2026-04-17 14:28:37 | NAV LIGHTS ON | 0 | 2401 |
| 2026-04-17 14:28:47 | STARTING ENGINE 1 | 0 | 2401 |
| 2026-04-17 14:34:13 | TAXI TO THE RWY | 0 | 2374 |
| 2026-04-17 14:34:13 | TAXING WITH TAXI LIGHTS OFF | 0 | 2374 |
| 2026-04-17 14:34:34 | TAXI LIGHTS ON | 0 | 2374 |
| 2026-04-17 14:36:08 | STOPPING ENGINE 1 | 0 | 2375 |
| 2026-04-17 14:36:08 | STARTING ENGINE 1 | 0 | 2375 |
| 2026-04-17 14:36:11 | STOPPING ENGINE 1 | 0 | 2375 |
| 2026-04-17 14:36:11 | STARTING ENGINE 1 | 0 | 2375 |
| 2026-04-17 14:37:24 | LND LIGHTS ON | 0 | 2375 |
| 2026-04-17 14:37:25 | TAXI LIGHTS OFF | 0 | 2375 |
| 2026-04-17 14:37:26 | STB LIGHTS ON | 0 | 2375 |
| 2026-04-17 14:38:28 | GEAR UP | 53 | 2374 |
| 2026-04-17 14:38:31 | CLIMBING | 58 | 2392 |
| 2026-04-17 14:39:08 | LND LIGHTS OFF | 70 | 2832 |
| 2026-04-17 14:39:08 | LIGHTS OFF BELOW 10000 ft | 70 | 2839 |
| 2026-04-17 14:39:39 | CRUISE | 81 | 3220 |
| 2026-04-17 14:39:52 | CLIMBING | 90 | 3263 |
| 2026-04-17 14:39:54 | CRUISE | 91 | 3279 |
| 2026-04-17 14:40:09 | LANDING | 88 | 3264 |
| 2026-04-17 14:41:11 | CLIMBING | 78 | 3328 |
| 2026-04-17 14:41:41 | CRUISE | 78 | 3671 |
| 2026-04-17 14:41:43 | LANDING | 80 | 3665 |
| 2026-04-17 14:45:47 | FLAP 33% | 91 | 3686 |
| 2026-04-17 14:45:48 | FLAP 0% | 91 | 3685 |
| 2026-04-17 14:48:32 | CLIMBING | 90 | 3544 |
| 2026-04-17 14:48:42 | CRUISE | 87 | 3627 |
| 2026-04-17 14:48:56 | CLIMBING | 84 | 3664 |
| 2026-04-17 14:49:18 | CRUISE | 79 | 3884 |
| 2026-04-17 14:49:33 | CLIMBING | 82 | 3979 |
| 2026-04-17 14:50:09 | CRUISE | 78 | 4288 |
| 2026-04-17 14:50:15 | CLIMBING | 80 | 4318 |
| 2026-04-17 14:50:49 | CRUISE | 80 | 4740 |
| 2026-04-17 14:50:57 | CLIMBING | 83 | 4772 |
| 2026-04-17 14:51:15 | CRUISE | 85 | 4930 |
| 2026-04-17 14:52:08 | CLIMBING | 97 | 5070 |
| 2026-04-17 14:52:18 | CRUISE | 97 | 5141 |
| 2026-04-17 14:54:24 | CLIMBING | 82 | 4957 |
| 2026-04-17 14:54:28 | CRUISE | 78 | 4996 |
| 2026-04-17 14:55:17 | CLIMBING | 85 | 4989 |
| 2026-04-17 14:55:34 | CRUISE | 92 | 5122 |
| 2026-04-17 14:56:08 | CLIMBING | 94 | 5114 |
| 2026-04-17 14:56:14 | CRUISE | 91 | 5152 |
| 2026-04-17 14:56:24 | CLIMBING | 89 | 5162 |
| 2026-04-17 14:56:52 | CRUISE | 87 | 5546 |
| 2026-04-17 14:57:09 | CLIMBING | 90 | 5619 |
| 2026-04-17 14:57:15 | CRUISE | 88 | 5670 |
| 2026-04-17 14:57:22 | CLIMBING | 91 | 5709 |
| 2026-04-17 14:57:42 | CRUISE | 91 | 5990 |
| 2026-04-17 14:58:40 | DESCEND | 85 | 6043 |
| 2026-04-17 14:59:25 | CLIMBING | 82 | 6020 |
| 2026-04-17 14:59:37 | CRUISE | 85 | 6136 |
| 2026-04-17 15:00:25 | DESCEND | 86 | 6150 |
| 2026-04-17 15:02:04 | CLIMBING | 80 | 5979 |
| 2026-04-17 15:02:10 | CRUISE | 80 | 6018 |
| 2026-04-17 15:03:04 | DESCEND | 78 | 6060 |
| 2026-04-17 15:05:13 | CLIMBING | 83 | 6099 |
| 2026-04-17 15:05:20 | CRUISE | 84 | 6157 |
| 2026-04-17 15:05:47 | CLIMBING | 86 | 6153 |
| 2026-04-17 15:05:51 | CRUISE | 86 | 6183 |
| 2026-04-17 15:06:23 | DESCEND | 88 | 6148 |
| 2026-04-17 15:07:15 | CLIMBING | 80 | 5980 |
| 2026-04-17 15:07:20 | CRUISE | 76 | 6031 |
| 2026-04-17 15:10:47 | CLIMBING | 79 | 5958 |
| 2026-04-17 15:11:26 | CRUISE | 79 | 6331 |
| 2026-04-17 15:11:39 | CLIMBING | 80 | 6383 |
| 2026-04-17 15:11:50 | CRUISE | 82 | 6475 |
| 2026-04-17 15:12:51 | CLIMBING | 88 | 6499 |
| 2026-04-17 15:12:59 | CRUISE | 93 | 6556 |
| 2026-04-17 15:14:17 | DESCEND | 91 | 6426 |
| 2026-04-17 15:17:51 | LND LIGHTS ON | 90 | 4442 |
| 2026-04-17 15:21:06 | FLAP 33% | 82 | 3171 |
| 2026-04-17 15:22:02 | FLAP 66% | 76 | 2725 |
| 2026-04-17 15:23:08 | LANDED AIRPORT [SDBN] | 51 | 2319 |
| 2026-04-17 15:23:08 | LANDED - VS: -6 ft/min | 49 | 2320 |
| 2026-04-17 15:23:13 | FLAP 0% | 33 | 2325 |
| 2026-04-17 15:23:15 | TAXI TO THE GATE | 26 | 2327 |
| 2026-04-17 15:23:51 | LND LIGHTS OFF | 0 | 2343 |
| 2026-04-17 15:23:51 | TAXI LIGHTS ON | 0 | 2342 |
| 2026-04-17 15:24:05 | AT THE GATE | 0 | 2339 |
| 2026-04-17 15:24:39 | TAXI LIGHTS OFF | 0 | 2339 |
| 2026-04-17 15:24:40 | STB LIGHTS OFF | 0 | 2339 |
| 2026-04-17 15:24:42 | NAV LIGHTS OFF | 0 | 2339 |
| 2026-04-17 15:24:45 | STOPPING ENGINE 1 | 0 | 2339 |
| 2026-04-17 15:24:49 | BCN LIGHTS OFF | 0 | 2339 |
| 2026-04-17 15:24:49 | FLIGHT FINISHED | 0 | 2339 |
| DATE | IAS | GS | ALTITUDE | FUEL USED | OAT | Flight Phase |
|---|---|---|---|---|---|---|
| 2026-04-17 14:28:32 | 0 | 0 | 2401 | 0 | 28 | BOARDING |
| 2026-04-17 14:29:32 | 0 | 0 | 2401 | 0 | 28 | BOARDING |
| 2026-04-17 14:30:32 | 0 | 0 | 2401 | 0 | 28 | BOARDING |
| 2026-04-17 14:31:32 | 0 | 0 | 2374 | 0 | 28 | BOARDING |
| 2026-04-17 14:32:32 | 0 | 0 | 2374 | 0 | 28 | BOARDING |
| 2026-04-17 14:33:32 | 0 | 0 | 2374 | 0 | 28 | BOARDING |
| 2026-04-17 14:34:32 | 0 | 11 | 2374 | 0 | 28 | BOARDING |
| 2026-04-17 14:35:32 | 8 | 23 | 2375 | 0 | 28 | TAXI TO THE RWY |
| 2026-04-17 14:36:32 | 0 | 0 | 2375 | 0 | 29 | TAXI TO THE RWY |
| 2026-04-17 14:37:32 | 0 | 0 | 2375 | 0 | 28 | TAXI TO THE RWY |
| 2026-04-17 14:38:32 | 59 | 68 | 2397 | 0 | 28 | TAXI TO THE RWY |
| 2026-04-17 14:39:32 | 76 | 78 | 3165 | 0 | 26 | CLIMBING |
| 2026-04-17 14:40:33 | 79 | 81 | 3182 | 0 | 26 | CLIMBING |
| 2026-04-17 14:41:33 | 83 | 82 | 3529 | 1 | 23 | LANDING |
| 2026-04-17 14:42:33 | 82 | 79 | 3678 | 1 | 23 | CLIMBING |
| 2026-04-17 14:43:33 | 94 | 90 | 3741 | 1 | 22 | LANDING |
| 2026-04-17 14:44:33 | 91 | 90 | 3677 | 1 | 23 | LANDING |
| 2026-04-17 14:45:33 | 93 | 85 | 3687 | 1 | 23 | LANDING |
| 2026-04-17 14:46:33 | 88 | 84 | 3642 | 2 | 23 | LANDING |
| 2026-04-17 14:47:34 | 85 | 82 | 3612 | 2 | 23 | LANDING |
| 2026-04-17 14:48:34 | 91 | 89 | 3555 | 2 | 24 | LANDING |
| 2026-04-17 14:49:34 | 83 | 81 | 3979 | 2 | 22 | CLIMBING |
| 2026-04-17 14:50:34 | 75 | 77 | 4583 | 3 | 20 | CLIMBING |
| 2026-04-17 14:51:34 | 91 | 86 | 4987 | 3 | 19 | CLIMBING |
| 2026-04-17 14:52:34 | 94 | 94 | 5028 | 3 | 18 | CRUISE |
| 2026-04-17 14:53:34 | 89 | 87 | 4973 | 3 | 19 | CRUISE |
| 2026-04-17 14:54:34 | 78 | 77 | 4994 | 3 | 18 | CRUISE |
| 2026-04-17 14:55:34 | 92 | 90 | 5122 | 4 | 18 | CRUISE |
| 2026-04-17 14:56:35 | 88 | 90 | 5333 | 4 | 17 | CRUISE |
| 2026-04-17 14:57:35 | 89 | 91 | 5909 | 4 | 15 | CLIMBING |
| 2026-04-17 14:58:35 | 88 | 89 | 6063 | 4 | 15 | CLIMBING |
| 2026-04-17 14:59:35 | 85 | 86 | 6125 | 4 | 15 | CRUISE |
| 2026-04-17 15:00:35 | 83 | 84 | 6041 | 5 | 15 | CLIMBING |
| 2026-04-17 15:01:35 | 81 | 82 | 5968 | 5 | 15 | DESCEND |
| 2026-04-17 15:02:36 | 82 | 83 | 6033 | 5 | 15 | DESCEND |
| 2026-04-17 15:03:36 | 79 | 79 | 5956 | 5 | 15 | CRUISE |
| 2026-04-17 15:04:36 | 83 | 84 | 6047 | 5 | 15 | DESCEND |
| 2026-04-17 15:05:36 | 83 | 86 | 6129 | 5 | 15 | DESCEND |
| 2026-04-17 15:06:36 | 90 | 92 | 6079 | 5 | 15 | CRUISE |
| 2026-04-17 15:07:36 | 80 | 81 | 5996 | 6 | 15 | DESCEND |
| 2026-04-17 15:08:36 | 82 | 84 | 5950 | 6 | 15 | CRUISE |
| 2026-04-17 15:09:36 | 76 | 76 | 5939 | 6 | 15 | CRUISE |
| 2026-04-17 15:10:36 | 75 | 75 | 5954 | 6 | 16 | CRUISE |
| 2026-04-17 15:11:36 | 79 | 77 | 6366 | 6 | 14 | CRUISE |
| 2026-04-17 15:12:37 | 85 | 85 | 6447 | 7 | 14 | CRUISE |
| 2026-04-17 15:13:37 | 103 | 100 | 6444 | 7 | 14 | CRUISE |
| 2026-04-17 15:14:37 | 96 | 93 | 6292 | 7 | 15 | CRUISE |
| 2026-04-17 15:15:37 | 88 | 86 | 5668 | 7 | 16 | DESCEND |
| 2026-04-17 15:16:37 | 92 | 91 | 5044 | 7 | 18 | DESCEND |
| 2026-04-17 15:17:37 | 88 | 86 | 4625 | 7 | 19 | DESCEND |
| 2026-04-17 15:18:37 | 87 | 86 | 3893 | 7 | 22 | DESCEND |
| 2026-04-17 15:19:37 | 90 | 83 | 3422 | 7 | 24 | DESCEND |
| 2026-04-17 15:20:37 | 86 | 91 | 3246 | 7 | 25 | DESCEND |
| 2026-04-17 15:21:37 | 72 | 74 | 3052 | 8 | 26 | DESCEND |
| 2026-04-17 15:22:37 | 59 | 70 | 2429 | 8 | 27 | DESCEND |
| 2026-04-17 15:23:38 | 0 | 7 | 2344 | 8 | 27 | DESCEND |
| 2026-04-17 15:24:38 | 0 | 0 | 2339 | 8 | 27 | TAXI TO THE GATE |